Riceville, New York
Current Conditions -  °F | °C
As of 12:35 PM on Tuesday 21 Oct 2014 (Local Time) from KNY0 Reporting Station
Overcast Overcast  
Wind Chill: 42°   Ceiling: 600
Heat Index: 46°   Visibility: 7mi
Dew Point: 45°   Wind: 8mph
Humidity: 95%   Direction: 90°E
Pressure: 29.92"   Gusts: NA
Location:  43.1204°N, 74.3629°W
Report Text: KNY0 211635Z AUTO 09007KT 7SM OVC006 08/07 A2992 RMK AO2 T00790071
Loading
Personal Weather Stations






























Interactive Weather Map
Tropical Storm Tracking
New forecast layout! Learn more

10-Day Weather Forecast

Advertisements
Track Severe Weather on mobile